Time;durP1;ratioP1;P1;durP2;ratioP2;P2;SDS_P1;SDS_P2;PMS_P1;PMS_P2;Temp;Humidity;BMP_temperature;BMP_pressure;BME280_temperature;BME280_humidity;BME280_pressure;Samples;Min_cycle;Max_cycle;Signal;HPM_P1;HPM_P2
2022/01/16 00:00:40;;;;;;;39.47;14.95;;;;;;;-0.92;100.00;102157.06;2091169;28;20036;-66
2022/01/16 00:04:11;;;;;;;32.20;13.93;;;;;;;-0.86;100.00;102178.59;2091074;28;20037;-68
2022/01/16 00:05:11;;;;;;;31.67;13.60;;;;;;;-0.86;100.00;102176.88;2091098;28;20027;-65
2022/01/16 00:06:13;;;;;;;33.57;12.83;;;;;;;-0.87;100.00;102175.16;2090957;28;20029;-65
2022/01/16 00:07:13;;;;;;;35.03;15.20;;;;;;;-0.91;100.00;102168.22;2090389;28;20029;-67
2022/01/16 00:08:14;;;;;;;26.70;15.23;;;;;;;-0.90;100.00;102159.69;2091090;28;20183;-66
2022/01/16 00:09:14;;;;;;;29.27;16.30;;;;;;;-0.88;100.00;102164.84;2090275;28;20175;-67
2022/01/16 00:10:17;;;;;;;26.40;12.70;;;;;;;-0.86;100.00;102171.75;2090367;28;20108;-67
2022/01/16 00:11:18;;;;;;;27.55;13.75;;;;;;;-0.85;100.00;102168.38;2091005;28;20028;-67
2022/01/16 00:12:19;;;;;;;29.90;14.87;;;;;;;-0.85;100.00;102170.94;2091005;28;20104;-68
2022/01/16 00:13:20;;;;;;;28.88;14.82;;;;;;;-0.86;100.00;102169.19;2090772;28;20032;-69
2022/01/16 00:14:20;;;;;;;25.90;14.03;;;;;;;-0.90;100.00;102167.38;2090988;28;20458;-66
2022/01/16 00:15:22;;;;;;;26.03;14.33;;;;;;;-0.88;100.00;102176.00;2090954;28;20029;-67
2022/01/16 00:16:23;;;;;;;25.95;14.30;;;;;;;-0.91;100.00;102176.78;2090904;28;20060;-66
2022/01/16 00:17:27;;;;;;;25.55;13.27;;;;;;;-0.92;100.00;102180.16;2090873;28;20386;-66
2022/01/16 00:18:30;;;;;;;29.25;15.75;;;;;;;-0.93;100.00;102180.97;2090990;28;20100;-66
2022/01/16 00:19:30;;;;;;;26.77;15.32;;;;;;;-0.93;100.00;102177.53;2090883;28;20086;-66
2022/01/16 00:20:31;;;;;;;25.47;14.43;;;;;;;-0.93;100.00;102180.09;2090895;28;20492;-66
2022/01/16 00:21:36;;;;;;;23.02;12.13;;;;;;;-0.93;100.00;102177.53;2090862;28;20051;-66
2022/01/16 00:22:39;;;;;;;27.13;14.23;;;;;;;-0.92;100.00;102169.03;2090819;28;20024;-67
2022/01/16 00:23:39;;;;;;;24.80;13.95;;;;;;;-0.92;100.00;102171.59;2090907;28;20025;-66
2022/01/16 00:24:40;;;;;;;25.97;14.17;;;;;;;-0.93;100.00;102169.84;2090900;28;20029;-66
2022/01/16 00:25:41;;;;;;;26.80;13.98;;;;;;;-0.92;100.00;102174.16;2090085;28;20037;-66
2022/01/16 00:26:41;;;;;;;28.67;13.70;;;;;;;-0.90;100.00;102164.81;2090047;28;20580;-66
2022/01/16 00:27:43;;;;;;;27.60;13.20;;;;;;;-0.89;100.00;102168.25;2090801;28;20025;-66
2022/01/16 00:28:43;;;;;;;24.90;14.30;;;;;;;-0.88;100.00;102163.16;2090856;28;20032;-66
2022/01/16 00:29:43;;;;;;;30.20;14.00;;;;;;;-0.86;100.00;102152.97;2090792;28;20127;-67
2022/01/16 00:30:44;;;;;;;30.27;14.60;;;;;;;-0.86;100.00;102143.56;2090759;28;20275;-65
2022/01/16 00:31:45;;;;;;;31.73;13.53;;;;;;;-0.84;100.00;102144.47;2090102;28;20071;-67
2022/01/16 00:32:46;;;;;;;31.05;14.57;;;;;;;-0.84;100.00;102136.78;2081910;28;20367;-67
2022/01/16 00:33:46;;;;;;;29.47;16.10;;;;;;;-0.84;100.00;102141.03;2090197;28;20047;-66
2022/01/16 00:34:46;;;;;;;28.00;13.93;;;;;;;-0.86;100.00;102147.84;2090797;28;20040;-66
2022/01/16 00:35:47;;;;;;;29.53;14.73;;;;;;;-0.86;100.00;102163.22;2090759;28;20267;-66
2022/01/16 00:36:48;;;;;;;26.27;14.20;;;;;;;-0.88;100.00;102160.59;2090841;28;20021;-66
2022/01/16 00:37:49;;;;;;;27.58;14.18;;;;;;;-0.89;100.00;102163.97;2090742;28;20020;-66
2022/01/16 00:38:52;;;;;;;27.63;14.43;;;;;;;-0.88;100.00;102170.88;2090754;28;20029;-66
2022/01/16 00:39:53;;;;;;;25.60;13.85;;;;;;;-0.89;100.00;102158.00;2090705;28;20123;-66
2022/01/16 00:40:53;;;;;;;25.20;15.07;;;;;;;-0.90;100.00;102159.69;2090705;28;20024;-66
2022/01/16 00:41:53;;;;;;;27.50;15.37;;;;;;;-0.88;100.00;102155.47;2090744;28;20021;-66
2022/01/16 00:42:55;;;;;;;27.00;14.77;;;;;;;-0.87;100.00;102162.34;2090072;28;20029;-66
2022/01/16 00:43:55;;;;;;;27.85;16.20;;;;;;;-0.87;100.00;102151.19;2090149;28;20017;-66
2022/01/16 00:44:55;;;;;;;31.90;14.93;;;;;;;-0.87;100.00;102152.09;2090784;28;20053;-66
2022/01/16 00:45:56;;;;;;;25.53;14.10;;;;;;;-0.88;100.00;102150.34;2090765;28;20374;-66
2022/01/16 00:46:56;;;;;;;29.50;16.50;;;;;;;-0.91;100.00;102161.41;2090665;28;20021;-66
2022/01/16 00:47:56;;;;;;;28.87;15.17;;;;;;;-0.87;100.00;102153.75;2090708;28;20037;-66
2022/01/16 00:48:57;;;;;;;25.43;14.50;;;;;;;-0.85;100.00;102147.88;2090744;28;20056;-65
2022/01/16 00:49:57;;;;;;;28.88;15.27;;;;;;;-0.86;100.00;102143.56;2090596;28;20020;-66
2022/01/16 00:50:57;;;;;;;26.87;14.43;;;;;;;-0.84;100.00;102141.03;2090726;28;20050;-66
2022/01/16 00:51:58;;;;;;;27.97;14.10;;;;;;;-0.82;100.00;102160.75;2090642;28;20032;-66
2022/01/16 00:52:58;;;;;;;26.63;14.33;;;;;;;-0.81;100.00;102170.19;2090639;28;20052;-65
2022/01/16 00:53:59;;;;;;;30.73;15.10;;;;;;;-0.78;100.00;102162.56;2090694;28;20025;-65
2022/01/16 00:55:03;;;;;;;28.30;14.10;;;;;;;-0.76;100.00;102167.72;2090690;28;20079;-65
2022/01/16 00:56:03;;;;;;;29.63;13.95;;;;;;;-0.74;100.00;102157.53;2090632;28;20056;-66
2022/01/16 00:57:04;;;;;;;32.28;16.60;;;;;;;-0.73;100.00;102146.44;2090619;28;20160;-65
2022/01/16 00:58:05;;;;;;;31.08;15.60;;;;;;;-0.73;100.00;102128.47;2090664;28;20025;-66
2022/01/16 00:59:05;;;;;;;26.83;14.10;;;;;;;-0.71;100.00;102116.59;2090500;28;20086;-66
2022/01/16 01:00:07;;;;;;;29.77;14.38;;;;;;;-0.70;100.00;102110.63;2090520;28;20020;-65
2022/01/16 01:01:08;;;;;;;27.50;13.70;;;;;;;-0.69;100.00;102108.09;2090637;28;20021;-65
2022/01/16 01:02:09;;;;;;;25.23;13.82;;;;;;;-0.68;100.00;102101.28;2089882;28;20043;-66
2022/01/16 01:03:11;;;;;;;25.53;14.53;;;;;;;-0.67;100.00;102103.00;2089939;28;20017;-66
2022/01/16 01:04:11;;;;;;;27.83;16.27;;;;;;;-0.66;100.00;102104.75;2090538;28;20136;-65
2022/01/16 01:05:11;;;;;;;29.67;15.23;;;;;;;-0.65;100.00;102121.88;2089815;28;20387;-65
2022/01/16 01:06:12;;;;;;;30.27;16.77;;;;;;;-0.63;100.00;102127.03;2089999;28;20082;-65
2022/01/16 01:07:13;;;;;;;30.37;14.17;;;;;;;-0.62;100.00;102131.34;2090552;28;20024;-67
2022/01/16 01:08:13;;;;;;;;;;;;;;;-0.59;100.00;102122.00;2090873;28;20025;-66
2022/01/16 01:09:14;;;;;;;30.02;13.52;;;;;;;-0.58;100.00;102126.31;2090495;28;20288;-66
2022/01/16 01:10:15;;;;;;;27.05;14.27;;;;;;;-0.57;100.00;102125.50;2090497;28;20120;-66
2022/01/16 01:11:18;;;;;;;28.80;14.65;;;;;;;-0.54;100.00;102133.25;2090397;28;20462;-66
2022/01/16 01:12:28;;;;;;;33.35;15.85;;;;;;;-0.54;100.00;102124.69;2090452;28;20021;-66
2022/01/16 01:14:53;;;;;;;31.80;15.47;;;;;;;-0.53;100.00;102135.00;2090618;28;20064;-66
2022/01/16 01:15:59;;;;;;;36.70;18.98;;;;;;;-0.55;100.00;102136.66;2090477;28;20059;-66
2022/01/16 01:17:03;;;;;;;33.28;16.40;;;;;;;-0.53;100.00;102137.56;2090491;28;20021;-66
2022/01/16 01:18:03;;;;;;;32.28;16.52;;;;;;;-0.51;100.00;102127.34;2090362;28;20031;-66
2022/01/16 01:19:04;;;;;;;32.70;15.53;;;;;;;-0.49;100.00;102122.22;2089648;28;20029;-66
2022/01/16 01:20:06;;;;;;;36.97;17.75;;;;;;;-0.46;100.00;102112.06;2090523;28;20020;-66
2022/01/16 01:21:16;;;;;;;32.38;16.25;;;;;;;-0.48;100.00;102118.84;2090437;28;20016;-66
2022/01/16 01:22:16;;;;;;;32.80;16.30;;;;;;;-0.49;100.00;102122.22;2090452;28;20028;-66
2022/01/16 01:23:16;;;;;;;31.87;15.80;;;;;;;-0.49;100.00;102106.84;2090418;28;20013;-66
2022/01/16 01:24:17;;;;;;;33.50;17.92;;;;;;;-0.50;100.00;102099.97;2090470;28;20091;-66
2022/01/16 01:25:18;;;;;;;34.07;16.73;;;;;;;-0.49;100.00;102101.72;2090351;28;20032;-66
2022/01/16 01:26:23;;;;;;;33.45;17.52;;;;;;;-0.48;100.00;102113.72;2090392;28;20487;-66
2022/01/16 01:27:29;;;;;;;26.65;15.25;;;;;;;-0.47;100.00;102120.59;2090365;28;20037;-66
2022/01/16 01:28:29;;;;;;;31.60;17.40;;;;;;;-0.50;100.00;102123.94;2090372;28;20028;-66
2022/01/16 01:29:30;;;;;;;33.00;17.27;;;;;;;-0.52;100.00;102129.03;2090391;28;20024;-65
2022/01/16 01:30:31;;;;;;;35.33;16.33;;;;;;;-0.53;100.00;102129.88;2090402;28;20021;-65
2022/01/16 01:31:31;;;;;;;33.30;17.00;;;;;;;-0.54;100.00;102132.41;2090456;28;20517;-65
2022/01/16 01:32:36;;;;;;;28.57;15.93;;;;;;;-0.54;100.00;102129.84;2090381;28;20033;-66
2022/01/16 01:33:37;;;;;;;31.42;16.73;;;;;;;-0.56;100.00;102129.78;2090288;28;20072;-65
2022/01/16 01:34:37;;;;;;;31.93;16.30;;;;;;;-0.57;100.00;102120.38;2090389;28;20033;-66
2022/01/16 01:35:39;;;;;;;35.05;17.50;;;;;;;-0.57;100.00;102109.22;2089661;28;20415;-65
2022/01/16 01:36:39;;;;;;;36.67;14.98;;;;;;;-0.57;100.00;102088.72;2081623;28;20031;-65
2022/01/16 01:37:42;;;;;;;35.93;16.57;;;;;;;-0.57;100.00;102069.09;2089630;28;20017;-65
2022/01/16 01:38:42;;;;;;;38.63;17.42;;;;;;;-0.55;100.00;102052.00;2089627;28;20021;-65
2022/01/16 01:39:42;;;;;;;37.77;18.47;;;;;;;-0.58;100.00;102051.94;2089652;28;20025;-65
2022/01/16 01:40:43;;;;;;;35.67;18.53;;;;;;;-0.58;100.00;102048.53;2090222;28;20439;-65
2022/01/16 01:41:43;;;;;;;38.50;17.50;;;;;;;-0.59;100.00;102039.94;2090176;28;20033;-65
2022/01/16 01:43:01;;;;;;;38.13;17.53;;;;;;;-0.61;100.00;102041.63;2090238;28;20287;-65
2022/01/16 01:51:05;;;;;;;39.60;16.20;;;;;;;-0.60;100.00;102074.13;2090157;28;20096;-66
2022/01/16 01:52:06;;;;;;;35.30;15.60;;;;;;;-0.60;100.00;102079.25;2090139;28;20083;-64
2022/01/16 01:53:06;;;;;;;35.15;16.80;;;;;;;-0.59;100.00;102080.97;2090063;28;20422;-65
2022/01/16 01:54:07;;;;;;;40.00;16.45;;;;;;;-0.58;100.00;102087.00;2090159;28;20025;-65
2022/01/16 01:55:07;;;;;;;38.73;16.73;;;;;;;-0.57;100.00;102089.59;2089409;28;20111;-65
2022/01/16 01:56:16;;;;;;;36.75;16.52;;;;;;;-0.56;100.00;102083.63;2089511;28;20063;-65
2022/01/16 01:57:17;;;;;;;37.45;16.90;;;;;;;-0.59;100.00;102101.50;2089402;28;20021;-66
2022/01/16 01:58:19;;;;;;;42.57;17.97;;;;;;;-0.60;100.00;102115.16;2089487;28;20120;-65
2022/01/16 01:59:19;;;;;;;41.25;15.77;;;;;;;-0.59;100.00;102116.88;2090025;28;20025;-65
2022/01/16 02:00:20;;;;;;;36.73;16.57;;;;;;;-0.60;100.00;102115.16;2089423;28;20127;-65
2022/01/16 02:01:21;;;;;;;33.95;16.38;;;;;;;-0.58;100.00;102107.50;2089419;28;20029;-65
2022/01/16 02:02:24;;;;;;;38.90;16.13;;;;;;;-0.62;100.00;102114.25;2090090;28;20386;-66
2022/01/16 02:03:42;;;;;;;38.53;16.52;;;;;;;-0.62;100.00;102121.09;2089995;28;20029;-66
2022/01/16 02:04:42;;;;;;;36.40;15.88;;;;;;;-0.61;100.00;102118.56;2090089;28;20021;-65
2022/01/16 02:05:43;;;;;;;36.40;16.60;;;;;;;-0.64;100.00;102123.59;2090040;28;20071;-66
2022/01/16 02:06:44;;;;;;;43.67;17.17;;;;;;;-0.68;100.00;102121.81;2090091;28;20021;-66
2022/01/16 02:07:44;;;;;;;45.57;18.83;;;;;;;-0.70;100.00;102126.88;2090107;28;20032;-66
2022/01/16 02:08:50;;;;;;;40.88;19.20;;;;;;;-0.77;100.00;102127.56;2090038;28;20398;-66
2022/01/16 02:09:50;;;;;;;31.85;15.05;;;;;;;-0.78;100.00;102131.81;2089349;28;20513;-66
2022/01/16 02:10:51;;;;;;;36.17;16.53;;;;;;;-0.76;100.00;102133.56;2089407;28;20061;-66
2022/01/16 02:11:52;;;;;;;40.53;17.57;;;;;;;-0.80;100.00;102128.34;2090005;28;20489;-66
2022/01/16 02:13:00;;;;;;;33.90;16.10;;;;;;;-0.81;100.00;102126.63;2090108;28;20024;-66
2022/01/16 02:14:13;;;;;;;46.55;16.75;;;;;;;-0.84;100.00;102131.66;2089982;28;20442;-65
2022/01/16 02:32:22;;;;;;;36.65;16.05;;;;;;;-0.95;100.00;102145.88;2090073;28;20040;-66
2022/01/16 02:34:42;;;;;;;42.22;15.15;;;;;;;-0.99;100.00;102154.31;2090020;28;20478;-65
2022/01/16 02:35:47;;;;;;;34.65;15.80;;;;;;;-0.99;100.00;102162.84;2089906;28;20032;-66
2022/01/16 02:36:51;;;;;;;46.20;15.63;;;;;;;-0.98;100.00;102159.50;2089900;28;20525;-66
2022/01/16 02:37:51;;;;;;;38.78;14.95;;;;;;;-0.97;100.00;102161.22;2089829;28;20029;-67
2022/01/16 02:38:51;;;;;;;45.00;15.90;;;;;;;-0.97;100.00;102162.91;2089975;28;20433;-65
2022/01/16 02:39:53;;;;;;;41.43;16.80;;;;;;;-0.97;100.00;102155.22;2089980;28;20025;-66
2022/01/16 02:41:01;;;;;;;45.40;18.17;;;;;;;-0.96;100.00;102159.53;2089854;28;20394;-66
2022/01/16 02:42:05;;;;;;;39.08;19.67;;;;;;;-0.97;100.00;102156.09;2089907;28;20410;-66
2022/01/16 02:43:05;;;;;;;41.53;16.55;;;;;;;-0.96;100.00;102150.13;2089899;28;20047;-67
2022/01/16 02:45:30;;;;;;;44.97;19.30;;;;;;;-0.94;100.00;102145.06;2089975;28;20037;-66
2022/01/16 02:47:32;;;;;;;40.50;18.17;;;;;;;-0.93;100.00;102136.53;2089970;28;20128;-65
2022/01/16 02:48:32;;;;;;;31.17;17.55;;;;;;;-0.92;100.00;102134.00;2089893;28;20021;-66
2022/01/16 02:49:34;;;;;;;57.23;21.17;;;;;;;-0.92;100.00;102133.16;2090038;28;20539;-65
2022/01/16 02:50:37;;;;;;;41.63;17.52;;;;;;;-0.91;100.00;102124.63;2090074;28;20021;-66
2022/01/16 02:51:37;;;;;;;39.97;18.27;;;;;;;-0.90;100.00;102136.63;2089285;28;20031;-66
2022/01/16 02:52:37;;;;;;;40.60;17.47;;;;;;;-0.90;100.00;102136.63;2089260;28;20025;-66
2022/01/16 02:53:38;;;;;;;38.13;18.70;;;;;;;-0.87;100.00;102130.69;2089904;28;20033;-66
2022/01/16 02:54:40;;;;;;;42.97;18.63;;;;;;;-0.91;100.00;102135.78;2090230;28;20021;-66
2022/01/16 02:55:41;;;;;;;37.70;18.88;;;;;;;-0.90;100.00;102131.50;2089969;28;20087;-66
2022/01/16 02:56:43;;;;;;;;;;;;;;;-0.86;100.00;102128.19;2089631;28;20417;-65
2022/01/16 02:57:43;;;;;;;37.03;15.43;;;;;;;-0.86;100.00;102123.06;2089338;28;19908;-65
2022/01/16 02:58:45;;;;;;;42.00;15.00;;;;;;;-0.83;100.00;102118.00;2089183;28;20083;-65
2022/01/16 02:59:51;;;;;;;39.45;17.23;;;;;;;-0.82;100.00;102109.47;2089130;28;20158;-66
2022/01/16 03:00:52;;;;;;;36.30;17.35;;;;;;;-0.81;100.00;102103.56;2089310;28;20052;-66
2022/01/16 03:01:52;;;;;;;44.93;20.27;;;;;;;-0.80;100.00;102105.28;2089878;28;20025;-66
2022/01/16 03:02:53;;;;;;;39.47;16.73;;;;;;;-0.80;100.00;102102.72;2089859;28;20080;-66
2022/01/16 03:03:53;;;;;;;43.88;18.17;;;;;;;-0.79;100.00;102094.19;2089863;28;20025;-66
2022/01/16 03:04:53;;;;;;;40.90;17.43;;;;;;;-0.78;100.00;102098.47;2089939;28;20099;-66
2022/01/16 03:05:54;;;;;;;44.07;19.73;;;;;;;-0.78;100.00;102095.91;2089219;28;20120;-66
2022/01/16 03:06:55;;;;;;;41.47;18.70;;;;;;;-0.79;100.00;102096.75;2089299;28;20025;-67
2022/01/16 03:07:55;;;;;;;43.05;19.52;;;;;;;-0.80;100.00;102089.91;2089902;28;20021;-67
2022/01/16 03:08:55;;;;;;;37.37;17.53;;;;;;;-0.78;100.00;102085.66;2089172;28;20080;-66
2022/01/16 03:11:34;;;;;;;39.40;15.85;;;;;;;-0.74;100.00;102084.06;2089997;28;20505;-66
2022/01/16 03:12:34;;;;;;;37.72;18.35;;;;;;;-0.73;100.00;102079.78;2089697;28;20037;-66
2022/01/16 03:13:40;;;;;;;42.27;18.87;;;;;;;-0.73;100.00;102077.22;2089057;28;20056;-66
2022/01/16 03:14:40;;;;;;;41.90;20.50;;;;;;;-0.72;100.00;102073.84;2089285;28;20068;-67
2022/01/16 03:15:40;;;;;;;42.07;20.37;;;;;;;-0.71;100.00;102071.31;2089850;28;20104;-67
2022/01/16 03:16:45;;;;;;;34.90;19.80;;;;;;;-0.69;100.00;102082.47;2089814;28;20032;-66
2022/01/16 03:21:58;;;;;;;38.83;20.13;;;;;;;-0.60;100.00;102076.69;2089869;28;20029;-66
2022/01/16 03:22:58;;;;;;;36.17;18.67;;;;;;;-0.58;100.00;102081.88;2089751;28;20059;-66
2022/01/16 03:23:58;;;;;;;37.20;19.83;;;;;;;-0.57;100.00;102076.78;2089698;28;20044;-66
2022/01/16 03:24:59;;;;;;;40.97;21.50;;;;;;;-0.56;100.00;102070.81;2089775;28;20078;-67
2022/01/16 03:26:00;;;;;;;42.60;22.00;;;;;;;-0.55;100.00;102079.38;2089739;28;20385;-67
2022/01/16 03:27:07;;;;;;;43.80;21.45;;;;;;;-0.54;100.00;102075.97;2089527;28;20127;-66
2022/01/16 03:28:07;;;;;;;40.72;20.65;;;;;;;-0.52;100.00;102072.63;2089644;28;20013;-66
2022/01/16 03:29:08;;;;;;;43.55;19.92;;;;;;;-0.50;100.00;102074.34;2089723;28;20029;-66
2022/01/16 03:30:12;;;;;;;38.47;19.10;;;;;;;-0.48;100.00;102075.25;2089799;28;20017;-66
2022/01/16 03:31:12;;;;;;;42.47;20.10;;;;;;;-0.45;100.00;102080.47;2089729;28;20079;-66
2022/01/16 03:32:17;;;;;;;36.37;19.30;;;;;;;-0.44;100.00;102079.63;2089757;28;20535;-66
2022/01/16 03:33:17;;;;;;;41.33;20.52;;;;;;;-0.44;100.00;102070.22;2088890;28;20071;-66
2022/01/16 03:34:18;;;;;;;36.70;19.20;;;;;;;-0.43;100.00;102071.09;2089116;28;20088;-66
2022/01/16 03:35:18;;;;;;;40.10;20.40;;;;;;;-0.40;100.00;102071.16;2089023;28;20053;-66
2022/01/16 03:36:18;;;;;;;43.37;21.03;;;;;;;-0.37;100.00;102066.13;2089054;28;20035;-66
2022/01/16 03:37:19;;;;;;;39.57;21.27;;;;;;;-0.35;100.00;102068.72;2089603;28;20021;-66
2022/01/16 03:38:19;;;;;;;37.08;20.23;;;;;;;-0.35;100.00;102061.88;2089648;28;20025;-66
2022/01/16 03:39:20;;;;;;;40.07;22.17;;;;;;;-0.34;100.00;102065.31;2089708;28;20111;-65
2022/01/16 03:40:21;;;;;;;46.67;22.97;;;;;;;-0.34;100.00;102071.28;2089759;28;20135;-65
2022/01/16 03:41:21;;;;;;;;;;;;;;;-0.32;100.00;102069.63;2089494;28;20435;-65
2022/01/16 03:42:26;;;;;;;39.78;19.73;;;;;;;-0.30;100.00;102072.25;2089889;28;19915;-65
2022/01/16 03:43:27;;;;;;;35.88;18.60;;;;;;;-0.29;100.00;102067.16;2091170;28;20103;-65
2022/01/16 03:44:28;;;;;;;35.20;18.87;;;;;;;-0.30;100.00;102067.97;2091209;28;20032;-65
2022/01/16 03:45:28;;;;;;;38.95;18.75;;;;;;;-0.27;100.00;102072.31;2091163;28;20385;-65
2022/01/16 03:46:34;;;;;;;38.40;19.60;;;;;;;-0.26;100.00;102058.66;2090547;28;20021;-65
2022/01/16 03:47:35;;;;;;;35.60;21.13;;;;;;;-0.24;100.00;102071.53;2090426;28;20040;-65
2022/01/16 03:48:35;;;;;;;40.22;20.65;;;;;;;-0.21;100.00;102071.59;2091086;28;20075;-65
2022/01/16 03:49:35;;;;;;;36.90;18.93;;;;;;;-0.20;100.00;102063.91;2091110;28;20029;-65
2022/01/16 03:50:36;;;;;;;43.23;20.60;;;;;;;-0.21;100.00;102075.00;2091168;28;20063;-65
2022/01/16 03:51:38;;;;;;;38.47;21.45;;;;;;;-0.18;100.00;102069.06;2091097;28;20029;-65
2022/01/16 03:52:38;;;;;;;38.80;21.05;;;;;;;-0.16;100.00;102070.88;2090390;28;20021;-65
2022/01/16 03:53:38;;;;;;;36.37;21.27;;;;;;;-0.15;100.00;102064.00;2090606;28;20025;-67
2022/01/16 03:54:39;;;;;;;42.23;21.97;;;;;;;-0.15;100.00;102074.28;2090411;28;20064;-66
2022/01/16 03:55:39;;;;;;;38.10;21.03;;;;;;;-0.14;100.00;102079.44;2090550;28;20025;-65
2022/01/16 03:56:40;;;;;;;34.87;21.57;;;;;;;-0.13;100.00;102072.63;2090481;28;20447;-66
2022/01/16 03:57:40;;;;;;;37.83;22.48;;;;;;;-0.12;100.00;102076.91;2090505;28;20021;-65
2022/01/16 03:58:41;;;;;;;36.50;22.63;;;;;;;-0.11;100.00;102073.50;2091100;28;20048;-66
2022/01/16 03:59:41;;;;;;;38.87;21.53;;;;;;;-0.07;100.00;102070.19;2091142;28;20025;-66
2022/01/16 04:00:42;;;;;;;37.73;20.30;;;;;;;-0.07;100.00;102070.19;2090415;28;20021;-66
2022/01/16 04:01:43;;;;;;;38.22;22.73;;;;;;;-0.07;100.00;102070.19;2090415;28;20028;-66
2022/01/16 04:02:43;;;;;;;37.65;21.48;;;;;;;-0.08;100.00;102068.44;2091075;28;20065;-66
2022/01/16 04:03:43;;;;;;;33.50;19.87;;;;;;;-0.06;100.00;102071.06;2091033;28;20020;-66
2022/01/16 04:04:43;;;;;;;38.77;21.47;;;;;;;-0.05;100.00;102068.53;2091048;28;20390;-66
2022/01/16 04:05:44;;;;;;;35.70;21.17;;;;;;;-0.03;100.00;102061.72;2090978;28;20037;-66
2022/01/16 04:06:44;;;;;;;35.03;21.07;;;;;;;-0.02;100.00;102063.47;2091050;28;20024;-66
2022/01/16 04:07:44;;;;;;;34.00;20.10;;;;;;;-0.01;100.00;102077.16;2091139;28;20029;-67
2022/01/16 04:08:46;;;;;;;36.80;21.37;;;;;;;-0.01;100.00;102077.16;2091040;28;20360;-66
2022/01/16 04:09:46;;;;;;;38.25;22.10;;;;;;;0.01;100.00;102072.03;2091049;28;20021;-65
2022/01/16 04:10:46;;;;;;;37.93;22.07;;;;;;;0.02;100.00;102073.78;2091070;28;20037;-66
2022/01/16 04:11:55;;;;;;;36.27;21.73;;;;;;;0.02;100.00;102073.78;2090990;28;20040;-67
2022/01/16 04:12:55;;;;;;;38.95;23.40;;;;;;;0.03;100.00;102075.53;2090152;28;20025;-66
2022/01/16 04:14:14;;;;;;;36.57;20.77;;;;;;;0.02;100.00;102074.66;2090323;28;20486;-67
2022/01/16 04:16:15;;;;;;;36.53;20.95;;;;;;;0.06;100.00;102073.88;2090559;28;20111;-66
2022/01/16 04:17:18;;;;;;;37.38;22.17;;;;;;;0.07;100.00;102072.19;2090915;28;20033;-66
2022/01/16 04:18:19;;;;;;;34.20;20.83;;;;;;;0.08;100.00;102068.78;2090911;28;20403;-66
2022/01/16 04:19:20;;;;;;;33.93;20.80;;;;;;;0.09;100.00;102073.94;2090292;28;20029;-66
2022/01/16 04:20:21;;;;;;;37.95;22.63;;;;;;;0.09;100.00;102073.06;2090399;28;20064;-66
2022/01/16 04:21:25;;;;;;;35.63;20.80;;;;;;;0.09;100.00;102070.50;2090909;28;20398;-66
2022/01/16 04:22:25;;;;;;;36.17;21.25;;;;;;;0.10;100.00;102074.81;2090933;28;20025;-66
2022/01/16 04:23:26;;;;;;;37.13;21.73;;;;;;;0.10;100.00;102062.00;2090215;28;20074;-67
2022/01/16 04:24:26;;;;;;;32.07;20.77;;;;;;;0.10;100.00;102074.81;2090299;28;20469;-66
2022/01/16 04:25:26;;;;;;;38.83;21.77;;;;;;;0.10;100.00;102062.00;2090731;28;20060;-66
2022/01/16 04:26:27;;;;;;;30.63;19.17;;;;;;;0.08;100.00;102064.53;2090745;28;20033;-67
2022/01/16 04:27:27;;;;;;;36.70;21.60;;;;;;;0.08;100.00;102068.78;2090849;28;20446;-67
2022/01/16 04:28:27;;;;;;;40.17;22.93;;;;;;;0.08;100.00;102071.34;2090843;28;20652;-66
2022/01/16 04:29:28;;;;;;;35.53;21.27;;;;;;;0.06;100.00;102070.44;2090903;28;20028;-67
2022/01/16 04:30:28;;;;;;;33.83;20.67;;;;;;;0.06;100.00;102070.44;2090950;28;20031;-66
2022/01/16 04:31:29;;;;;;;33.92;20.58;;;;;;;0.07;100.00;102074.75;2090870;28;20029;-66
2022/01/16 04:32:29;;;;;;;31.53;19.40;;;;;;;0.07;100.00;102077.31;2090167;28;20025;-66
2022/01/16 04:33:29;;;;;;;38.50;22.10;;;;;;;0.06;100.00;102075.56;2090181;28;20051;-67
2022/01/16 04:34:30;;;;;;;39.50;22.17;;;;;;;0.08;100.00;102066.22;2090789;28;20398;-66
2022/01/16 04:35:30;;;;;;;34.20;21.87;;;;;;;0.08;100.00;102069.66;2090855;28;20025;-66
2022/01/16 04:36:30;;;;;;;36.10;21.43;;;;;;;0.09;100.00;102076.53;2090165;28;20063;-66
2022/01/16 04:37:31;;;;;;;30.33;19.80;;;;;;;0.10;100.00;102067.13;2090039;28;20378;-66
2022/01/16 04:38:33;;;;;;;38.58;22.30;;;;;;;0.12;100.00;102073.16;2090091;28;20080;-67
2022/01/16 04:39:36;;;;;;;33.38;20.80;;;;;;;0.14;100.00;102073.19;2090137;28;20021;-67
2022/01/16 04:43:47;;;;;;;32.72;21.23;;;;;;;0.14;100.00;102068.91;2090794;28;20547;-66
2022/01/16 04:44:43;;;;;;;29.00;18.08;;;;;;;0.17;100.00;102063.81;2090655;28;20040;-66
2022/01/16 04:45:44;;;;;;;38.20;22.93;;;;;;;0.17;100.00;102068.13;2090055;28;20517;-65
2022/01/16 04:46:46;;;;;;;35.63;20.77;;;;;;;0.16;100.00;102056.97;2090044;28;20056;-65
2022/01/16 04:47:47;;;;;;;34.55;20.70;;;;;;;0.16;100.00;102056.97;2090639;28;20024;-66
2022/01/16 04:48:49;;;;;;;;;;;;;;;0.18;100.00;102055.31;2091136;28;20027;-66
2022/01/16 04:49:49;;;;;;;30.88;19.52;;;;;;;0.18;100.00;102059.56;2089855;28;19913;-66
2022/01/16 04:50:49;;;;;;;33.07;19.30;;;;;;;0.17;100.00;102053.56;2090024;28;20509;-66
2022/01/16 04:51:49;;;;;;;29.37;19.13;;;;;;;0.16;100.00;102062.09;2090730;28;20025;-66
2022/01/16 04:52:50;;;;;;;33.13;22.40;;;;;;;0.15;100.00;102060.38;2090428;28;20025;-66
2022/01/16 04:53:50;;;;;;;33.13;20.83;;;;;;;0.15;100.00;102055.25;2089893;28;20477;-66
2022/01/16 04:54:50;;;;;;;35.47;20.43;;;;;;;0.16;100.00;102056.09;2090049;28;20041;-66
2022/01/16 04:55:52;;;;;;;36.57;22.03;;;;;;;0.16;100.00;102056.09;2090715;28;20110;-66
2022/01/16 04:56:52;;;;;;;;;;;;;;;0.16;100.00;102054.41;2091047;28;20021;-66
2022/01/16 04:57:53;;;;;;;29.23;18.58;;;;;;;0.18;100.00;102064.72;2089915;28;20370;-66
2022/01/16 04:58:53;;;;;;;36.27;20.43;;;;;;;0.17;100.00;102053.56;2089964;28;20017;-67
2022/01/16 04:59:53;;;;;;;35.22;20.67;;;;;;;0.18;100.00;102055.31;2090590;28;20017;-66
2022/01/16 05:00:54;;;;;;;36.40;20.13;;;;;;;0.18;100.00;102050.19;2090606;28;20474;-66
2022/01/16 05:01:54;;;;;;;32.42;21.33;;;;;;;0.19;100.00;102053.59;2090333;28;20028;-66
2022/01/16 05:02:55;;;;;;;35.40;22.43;;;;;;;0.20;100.00;102057.91;2089904;28;20505;-66
2022/01/16 05:03:55;;;;;;;35.93;20.30;;;;;;;0.20;100.00;102057.91;2089927;28;20044;-66
2022/01/16 05:04:55;;;;;;;31.93;19.33;;;;;;;0.20;100.00;102061.31;2090013;28;20024;-66
2022/01/16 05:05:56;;;;;;;35.87;21.63;;;;;;;0.21;100.00;102057.91;2090462;28;20021;-66
2022/01/16 05:06:56;;;;;;;37.37;21.50;;;;;;;0.20;100.00;102056.19;2090591;28;20017;-66
2022/01/16 05:07:56;;;;;;;34.90;21.73;;;;;;;0.22;100.00;102046.84;2090542;28;20024;-66
2022/01/16 05:08:56;;;;;;;33.30;21.30;;;;;;;0.21;100.00;102045.06;2090510;28;20032;-65
2022/01/16 05:09:57;;;;;;;36.53;22.27;;;;;;;0.21;100.00;102050.22;2090478;28;20031;-65
2022/01/16 05:10:58;;;;;;;30.70;21.30;;;;;;;0.22;100.00;102051.97;2090508;28;20025;-66
2022/01/16 05:12:01;;;;;;;33.72;20.67;;;;;;;0.21;100.00;102039.94;2090487;28;20111;-66
2022/01/16 05:13:27;;;;;;;34.80;21.75;;;;;;;0.22;100.00;102036.56;2090384;28;20063;-65
2022/01/16 05:17:00;;;;;;;36.65;21.50;;;;;;;0.24;100.00;102040.00;2090561;28;20060;-65
2022/01/16 05:18:01;;;;;;;33.93;20.03;;;;;;;0.23;100.00;102043.44;2090444;28;20418;-66
2022/01/16 05:19:08;;;;;;;35.28;22.00;;;;;;;0.24;100.00;102042.56;2090422;28;20324;-66
2022/01/16 05:20:09;;;;;;;35.17;20.48;;;;;;;0.25;100.00;102044.31;2090421;28;20435;-66
2022/01/16 05:21:09;;;;;;;36.70;21.30;;;;;;;0.27;100.00;102048.63;2090443;28;20048;-66
2022/01/16 05:22:10;;;;;;;38.13;23.13;;;;;;;0.27;100.00;102052.03;2090416;28;20017;-65